Santa Teresa — D5AH6 — position and weather

sailwx.info

Track history (hours):
 
Tides and Currents Weather Stations Pressure Air Temp Water Temp Dewpoint Dewpoint Depression Visibility Wind Speed Wind Dir Waves Ship Positions

Santa Teresa

Last reported at 2015-Jan-23 23:27 UTC. Time now 2015-Jan-26 04:29 UTC.
Position N 25°00' E 120°00'.

Length 300 m; draft 11.4 m.

Type: Ship (hazmat cat A). MMSI: 636092317.

Date/timePositionNaut miles runAvg speedWind from/ knotsBaromVisibWave heightAir tempDewpointWater temp
2015-Jan-23 23:27N 25°00' E 120°00'1719.1
2015-Jan-23 22:33N 24°48' E 119°47'2318.7
2015-Jan-23 21:20N 24°32' E 119°28'1418.3
2015-Jan-23 20:33N 24°23' E 119°17'1717.2
2015-Jan-23 19:32N 24°12' E 119°02'2017.3
2015-Jan-23 18:23N 23°59' E 118°45'1517.8
2015-Jan-23 17:31N 23°50' E 118°32'3618.6
2015-Jan-23 15:33N 23°29' E 117°59'1919.4
2015-Jan-23 14:33N 23°20' E 117°40'1919.1
2015-Jan-23 13:33N 23°09' E 117°23'1918.1
2015-Jan-23 12:31N 22°59' E 117°06'1616.8
2015-Jan-23 11:33N 22°47' E 116°54'1716.9
2015-Jan-23 10:33N 22°38' E 116°38'13115.8
2015-Jan-23 02:14N 22°34' E 114°16'0 0.5
2015-Jan-23 01:33N 22°34' E 114°16'0 0.0
2015-Jan-22 23:27N 22°34' E 114°16'0 0.0
2015-Jan-22 20:04N 22°34' E 114°16'0 0.0
2015-Jan-22 19:34N 22°34' E 114°16'0 0.0
2015-Jan-22 18:34N 22°34' E 114°16'0 0.0
2015-Jan-22 17:28N 22°34' E 114°16'0 0.0
2015-Jan-22 16:18N 22°34' E 114°16'16 8.7
2015-Jan-22 14:26N 22°22' E 114°28'1517.2
2015-Jan-22 13:33N 22°09' E 114°20'1512.5
2015-Jan-22 12:21N 22°16' E 114°06'4 5.5
2015-Jan-22 11:33N 22°21' E 114°07'0 0.1
2015-Jan-22 10:18N 22°20' E 114°07'0 0.0
2015-Jan-22 06:16N 22°20' E 114°07'3 0.2
2015-Jan-21 14:33N 22°18' E 114°06'12 8.7
2015-Jan-21 13:14N 22°09' E 114°14'6 9.0
2015-Jan-21 12:32N 22°09' E 114°21'1110.7
2015-Jan-21 11:32N 22°10' E 114°32'3 2.9
2015-Jan-21 10:29N 22°11' E 114°35'2 1.7
2015-Jan-21 09:26N 22°10' E 114°37'3 1.4
2015-Jan-21 07:26N 22°11' E 114°39'132 9.4
2015-Jan-20 17:28N 22°49' E 116°56'68 6.3
2015-Jan-20 06:33N 23°34' E 117°52'1514.5
2015-Jan-20 05:33N 23°45' E 118°03'1414.6
2015-Jan-20 04:33N 23°57' E 118°11'1313.1
2015-Jan-20 03:33N 24°08' E 118°18'1512.5
2015-Jan-20 02:22N 24°21' E 118°10'810.1
2015-Jan-20 01:33N 24°26' E 118°03'5 4.7
2015-Jan-20 00:34N 24°31' E 118°05'0 0.0
2015-Jan-19 23:34N 24°31' E 118°05'0 0.0
2015-Jan-19 22:27N 24°31' E 118°05'0 0.0
2015-Jan-19 21:27N 24°31' E 118°05'0 0.0
2015-Jan-19 20:33N 24°31' E 118°05'0 0.0
2015-Jan-19 19:33N 24°31' E 118°05'0 0.0
2015-Jan-19 18:33N 24°31' E 118°05'0 0.0
2015-Jan-19 17:33N 24°31' E 118°05'0 0.0
2015-Jan-19 16:33N 24°31' E 118°05'0 0.0
2015-Jan-19 15:30N 24°31' E 118°05'0 0.0
2015-Jan-19 14:33N 24°31' E 118°05'0 0.0
2015-Jan-19 13:27N 24°31' E 118°05'0 0.0
2015-Jan-19 12:24N 24°31' E 118°05'0 0.0
2015-Jan-19 11:33N 24°31' E 118°05'0 0.0
2015-Jan-19 10:33N 24°31' E 118°05'0 0.0
2015-Jan-19 09:33N 24°31' E 118°05'4 3.7
2015-Jan-19 08:33N 24°27' E 118°03'1010.5
2015-Jan-19 07:33N 24°20' E 118°11'1111.0
2015-Jan-19 06:33N 24°12' E 118°19'4 4.1
2015-Jan-19 05:29N 24°13' E 118°24'2 2.1
2015-Jan-19 04:31N 24°11' E 118°25'4 3.7
2015-Jan-19 03:32N 24°13' E 118°29'4 3.7
2015-Jan-19 02:30N 24°15' E 118°33'3514.7
2015-Jan-19 00:06N 24°26' E 119°09'713.2
2015-Jan-18 23:33N 24°31' E 119°15'5412.2
2015-Jan-18 19:09N 25°05' E 120°01'28412.6
2015-Jan-17 20:33N 29°16' E 122°31'1514.4
2015-Jan-17 19:31N 29°30' E 122°31'1313.7
2015-Jan-17 18:33N 29°42' E 122°24'1211.8
2015-Jan-17 17:33N 29°50' E 122°13'1111.2
2015-Jan-17 16:33N 29°46' E 122°01'0 0.5
2015-Jan-17 15:33N 29°46' E 122°00'0 0.0
2015-Jan-17 02:33N 29°46' E 122°00'8 8.0
2015-Jan-17 01:33N 29°49' E 122°09'10 9.6
2015-Jan-17 00:33N 29°45' E 122°19'1110.7
2015-Jan-16 23:33N 29°41' E 122°30'6 4.5
2015-Jan-16 22:11N 29°40' E 122°37'3 4.9
2015-Jan-16 21:33N 29°43' E 122°39'1312.5
2015-Jan-16 20:33N 29°50' E 122°50'31 9.0
2015-Jan-16 17:04N 30°21' E 122°55'812.5
2015-Jan-16 16:24N 30°26' E 122°47'1212.1
2015-Jan-16 15:22N 30°30' E 122°34'1311.7
2015-Jan-16 14:18N 30°32' E 122°19'912.8
2015-Jan-16 13:33N 30°34' E 122°09'6 6.0
2015-Jan-16 12:33N 30°38' E 122°03'0 0.0
2015-Jan-16 11:33N 30°38' E 122°03'0 0.1
2015-Jan-16 10:32N 30°38' E 122°03'0 0.0
2015-Jan-16 09:32N 30°38' E 122°03'0 0.1
2015-Jan-16 08:32N 30°38' E 122°03'0 0.0
2015-Jan-16 07:29N 30°38' E 122°03'0 0.0
2015-Jan-16 06:32N 30°38' E 122°03'0 0.0
2015-Jan-16 05:29N 30°38' E 122°03'0 0.0
2015-Jan-15 23:32N 30°38' E 122°03'0 0.1
2015-Jan-15 22:32N 30°38' E 122°03'0 0.1
2015-Jan-15 21:32N 30°38' E 122°03'0 0.1
2015-Jan-15 20:32N 30°38' E 122°03'0 0.0
2015-Jan-15 19:32N 30°38' E 122°03'0 0.1
2015-Jan-15 18:32N 30°38' E 122°03'0 0.0
2015-Jan-15 17:32N 30°38' E 122°03'0 0.0
2015-Jan-15 16:29N 30°38' E 122°03'0 0.0
2015-Jan-15 15:32N 30°38' E 122°03'3 3.0
2015-Jan-15 14:33N 30°36' E 122°06'1110.7
2015-Jan-15 13:33N 30°33' E 122°18'1716.2
2015-Jan-15 12:30N 30°32' E 122°38'2221.6
2015-Jan-15 11:28N 30°37' E 123°03'  
Track history (hours):
 
Tides and Currents Weather Stations Pressure Air Temp Water Temp Dewpoint Dewpoint Depression Visibility Wind Speed Wind Dir Waves Ship Positions

Santa Teresa

Last reported at 2015-Jan-23 23:27 UTC. Time now 2015-Jan-26 04:29 UTC.
Position N 25°00' E 120°00'.

Length 300 m; draft 11.4 m.

Type: Ship (hazmat cat A). MMSI: 636092317.

Date/timePositionNaut miles runAvg speedWind from/ knotsBaromVisibWave heightAir tempDewpointWater temp
2015-Jan-23 23:27N 25°00' E 120°00'1719.1
2015-Jan-23 22:33N 24°48' E 119°47'2318.7
2015-Jan-23 21:20N 24°32' E 119°28'1418.3
2015-Jan-23 20:33N 24°23' E 119°17'1717.2
2015-Jan-23 19:32N 24°12' E 119°02'2017.3
2015-Jan-23 18:23N 23°59' E 118°45'1517.8
2015-Jan-23 17:31N 23°50' E 118°32'3618.6
2015-Jan-23 15:33N 23°29' E 117°59'1919.4
2015-Jan-23 14:33N 23°20' E 117°40'1919.1
2015-Jan-23 13:33N 23°09' E 117°23'1918.1
2015-Jan-23 12:31N 22°59' E 117°06'1616.8
2015-Jan-23 11:33N 22°47' E 116°54'1716.9
2015-Jan-23 10:33N 22°38' E 116°38'13115.8
2015-Jan-23 02:14N 22°34' E 114°16'0 0.5
2015-Jan-23 01:33N 22°34' E 114°16'0 0.0
2015-Jan-22 23:27N 22°34' E 114°16'0 0.0
2015-Jan-22 20:04N 22°34' E 114°16'0 0.0
2015-Jan-22 19:34N 22°34' E 114°16'0 0.0
2015-Jan-22 18:34N 22°34' E 114°16'0 0.0
2015-Jan-22 17:28N 22°34' E 114°16'0 0.0
2015-Jan-22 16:18N 22°34' E 114°16'16 8.7
2015-Jan-22 14:26N 22°22' E 114°28'1517.2
2015-Jan-22 13:33N 22°09' E 114°20'1512.5
2015-Jan-22 12:21N 22°16' E 114°06'4 5.5
2015-Jan-22 11:33N 22°21' E 114°07'0 0.1
2015-Jan-22 10:18N 22°20' E 114°07'0 0.0
2015-Jan-22 06:16N 22°20' E 114°07'3 0.2
2015-Jan-21 14:33N 22°18' E 114°06'12 8.7
2015-Jan-21 13:14N 22°09' E 114°14'6 9.0
2015-Jan-21 12:32N 22°09' E 114°21'1110.7
2015-Jan-21 11:32N 22°10' E 114°32'3 2.9
2015-Jan-21 10:29N 22°11' E 114°35'2 1.7
2015-Jan-21 09:26N 22°10' E 114°37'3 1.4
2015-Jan-21 07:26N 22°11' E 114°39'132 9.4
2015-Jan-20 17:28N 22°49' E 116°56'68 6.3
2015-Jan-20 06:33N 23°34' E 117°52'1514.5
2015-Jan-20 05:33N 23°45' E 118°03'1414.6
2015-Jan-20 04:33N 23°57' E 118°11'1313.1
2015-Jan-20 03:33N 24°08' E 118°18'1512.5
2015-Jan-20 02:22N 24°21' E 118°10'810.1
2015-Jan-20 01:33N 24°26' E 118°03'5 4.7
2015-Jan-20 00:34N 24°31' E 118°05'0 0.0
2015-Jan-19 23:34N 24°31' E 118°05'0 0.0
2015-Jan-19 22:27N 24°31' E 118°05'0 0.0
2015-Jan-19 21:27N 24°31' E 118°05'0 0.0
2015-Jan-19 20:33N 24°31' E 118°05'0 0.0
2015-Jan-19 19:33N 24°31' E 118°05'0 0.0
2015-Jan-19 18:33N 24°31' E 118°05'0 0.0
2015-Jan-19 17:33N 24°31' E 118°05'0 0.0
2015-Jan-19 16:33N 24°31' E 118°05'0 0.0
2015-Jan-19 15:30N 24°31' E 118°05'0 0.0
2015-Jan-19 14:33N 24°31' E 118°05'0 0.0
2015-Jan-19 13:27N 24°31' E 118°05'0 0.0
2015-Jan-19 12:24N 24°31' E 118°05'0 0.0
2015-Jan-19 11:33N 24°31' E 118°05'0 0.0
2015-Jan-19 10:33N 24°31' E 118°05'0 0.0
2015-Jan-19 09:33N 24°31' E 118°05'4 3.7
2015-Jan-19 08:33N 24°27' E 118°03'1010.5
2015-Jan-19 07:33N 24°20' E 118°11'1111.0
2015-Jan-19 06:33N 24°12' E 118°19'4 4.1
2015-Jan-19 05:29N 24°13' E 118°24'2 2.1
2015-Jan-19 04:31N 24°11' E 118°25'4 3.7
2015-Jan-19 03:32N 24°13' E 118°29'4 3.7
2015-Jan-19 02:30N 24°15' E 118°33'3514.7
2015-Jan-19 00:06N 24°26' E 119°09'713.2
2015-Jan-18 23:33N 24°31' E 119°15'5412.2
2015-Jan-18 19:09N 25°05' E 120°01'28412.6
2015-Jan-17 20:33N 29°16' E 122°31'1514.4
2015-Jan-17 19:31N 29°30' E 122°31'1313.7
2015-Jan-17 18:33N 29°42' E 122°24'1211.8
2015-Jan-17 17:33N 29°50' E 122°13'1111.2
2015-Jan-17 16:33N 29°46' E 122°01'0 0.5
2015-Jan-17 15:33N 29°46' E 122°00'0 0.0
2015-Jan-17 02:33N 29°46' E 122°00'8 8.0
2015-Jan-17 01:33N 29°49' E 122°09'10 9.6
2015-Jan-17 00:33N 29°45' E 122°19'1110.7
2015-Jan-16 23:33N 29°41' E 122°30'6 4.5
2015-Jan-16 22:11N 29°40' E 122°37'3 4.9
2015-Jan-16 21:33N 29°43' E 122°39'1312.5
2015-Jan-16 20:33N 29°50' E 122°50'31 9.0
2015-Jan-16 17:04N 30°21' E 122°55'812.5
2015-Jan-16 16:24N 30°26' E 122°47'1212.1
2015-Jan-16 15:22N 30°30' E 122°34'1311.7
2015-Jan-16 14:18N 30°32' E 122°19'912.8
2015-Jan-16 13:33N 30°34' E 122°09'6 6.0
2015-Jan-16 12:33N 30°38' E 122°03'0 0.0
2015-Jan-16 11:33N 30°38' E 122°03'0 0.1
2015-Jan-16 10:32N 30°38' E 122°03'0 0.0
2015-Jan-16 09:32N 30°38' E 122°03'0 0.1
2015-Jan-16 08:32N 30°38' E 122°03'0 0.0
2015-Jan-16 07:29N 30°38' E 122°03'0 0.0
2015-Jan-16 06:32N 30°38' E 122°03'0 0.0
2015-Jan-16 05:29N 30°38' E 122°03'0 0.0
2015-Jan-15 23:32N 30°38' E 122°03'0 0.1
2015-Jan-15 22:32N 30°38' E 122°03'0 0.1
2015-Jan-15 21:32N 30°38' E 122°03'0 0.1
2015-Jan-15 20:32N 30°38' E 122°03'0 0.0
2015-Jan-15 19:32N 30°38' E 122°03'0 0.1
2015-Jan-15 18:32N 30°38' E 122°03'0 0.0
2015-Jan-15 17:32N 30°38' E 122°03'0 0.0
2015-Jan-15 16:29N 30°38' E 122°03'0 0.0
2015-Jan-15 15:32N 30°38' E 122°03'3 3.0
2015-Jan-15 14:33N 30°36' E 122°06'1110.7
2015-Jan-15 13:33N 30°33' E 122°18'1716.2
2015-Jan-15 12:30N 30°32' E 122°38'2221.6
2015-Jan-15 11:28N 30°37' E 123°03'  

Dump ship's entire track history